createdAt,value
2019-04-20T00:00:35.893Z,100050.98
2019-04-20T00:03:00.086Z,100053.42
2019-04-20T00:05:30.859Z,100055.84
2019-04-20T00:08:03.243Z,100053.20
2019-04-20T00:10:40.171Z,100055.38
2019-04-20T00:13:13.793Z,100057.74
2019-04-20T00:15:32.321Z,100056.85
2019-04-20T00:18:03.496Z,100047.97
2019-04-20T00:20:35.285Z,100055.98
2019-04-20T00:23:29.535Z,100051.38
2019-04-20T00:26:22.128Z,100046.52
2019-04-20T00:29:01.096Z,100048.81
2019-04-20T00:31:30.673Z,100046.83
2019-04-20T00:33:56.181Z,100046.12
2019-04-20T00:36:16.141Z,100052.19
2019-04-20T00:38:50.053Z,100047.45
2019-04-20T00:41:18.247Z,100046.70
2019-04-20T00:43:47.144Z,100046.02
2019-04-20T00:46:26.239Z,100044.16
2019-04-20T00:48:55.982Z,100034.20
2019-04-20T00:51:39.567Z,100041.56
2019-04-20T00:53:51.225Z,100047.69
2019-04-20T00:56:18.350Z,100051.20
2019-04-20T00:58:58.173Z,100034.92
2019-04-20T01:01:38.121Z,100036.11
2019-04-20T01:04:10.654Z,100036.11
2019-04-20T01:06:49.201Z,100036.09
2019-04-20T01:09:11.971Z,100036.09
2019-04-20T01:11:45.036Z,100030.82
2019-04-20T01:14:14.227Z,100035.47
2019-04-20T01:16:49.126Z,100042.17
2019-04-20T01:19:12.544Z,100042.17
2019-04-20T01:21:43.082Z,100034.16
2019-04-20T01:24:20.139Z,100036.50
2019-04-20T01:26:48.922Z,100033.06
2019-04-20T01:29:21.538Z,100041.34
2019-04-20T01:31:55.901Z,100040.49
2019-04-20T01:34:26.977Z,100045.11
2019-04-20T01:37:04.398Z,100045.11
2019-04-20T01:39:28.429Z,100045.23
2019-04-20T01:41:52.020Z,100039.39
2019-04-20T01:44:26.659Z,100037.15
2019-04-20T01:46:56.427Z,100037.15
2019-04-20T01:49:25.597Z,100042.08
2019-04-20T01:52:03.869Z,100039.63
2019-04-20T01:54:38.574Z,100035.83
2019-04-20T01:57:09.488Z,100032.05
2019-04-20T01:59:47.047Z,100037.13
2019-04-20T02:02:29.413Z,100037.13
2019-04-20T02:05:11.325Z,100020.56
2019-04-20T02:07:40.005Z,100034.56
2019-04-20T02:10:08.854Z,100036.20
2019-04-20T02:12:39.545Z,100034.30
2019-04-20T02:15:17.194Z,100035.03
2019-04-20T02:17:44.113Z,100039.31
2019-04-20T02:20:27.728Z,100035.05
2019-04-20T02:22:56.918Z,100033.41
2019-04-20T02:25:12.170Z,100044.02
2019-04-20T02:27:47.097Z,100047.34
2019-04-20T02:30:49.107Z,100043.34
2019-04-20T02:33:27.398Z,100043.39
2019-04-20T02:39:13.681Z,100044.70
2019-04-20T02:41:17.849Z,100045.70
2019-04-20T02:43:57.969Z,100045.91
2019-04-20T02:46:22.445Z,100038.08
2019-04-20T02:48:53.502Z,100038.33
2019-04-20T02:51:22.572Z,100043.67
2019-04-20T02:54:01.400Z,100026.56
2019-04-20T02:56:23.237Z,100037.80
2019-04-20T02:59:02.156Z,100033.55
2019-04-20T03:01:32.437Z,100039.16
2019-04-20T03:03:50.388Z,100034.88
2019-04-20T03:06:26.263Z,100034.40
2019-04-20T03:09:11.348Z,100031.88
2019-04-20T03:11:49.919Z,100037.05
2019-04-20T03:14:08.421Z,100031.36
2019-04-20T03:16:35.768Z,100031.34
2019-04-20T03:19:06.092Z,100036.25
2019-04-20T03:21:47.967Z,100039.92
2019-04-20T03:24:16.014Z,100022.78
2019-04-20T03:26:40.318Z,100027.10
2019-04-20T03:29:15.930Z,100027.10
2019-04-20T03:32:32.334Z,100036.29
2019-04-20T03:37:08.418Z,100033.46
2019-04-20T03:39:28.398Z,100032.96
2019-04-20T03:41:46.734Z,100038.77
2019-04-20T03:44:19.253Z,100043.80
2019-04-20T03:46:51.969Z,100041.05
2019-04-20T03:49:42.245Z,100041.05
2019-04-20T03:52:23.452Z,100043.69
2019-04-20T03:55:16.197Z,100045.66
2019-04-20T03:58:01.451Z,100038.33
2019-04-20T04:00:36.218Z,100039.03
2019-04-20T04:03:26.118Z,100011.98
2019-04-20T04:05:48.016Z,100038.55
2019-04-20T04:08:12.226Z,100045.27
2019-04-20T04:10:50.166Z,100045.27
2019-04-20T04:13:12.487Z,100038.34
2019-04-20T04:15:48.788Z,100046.98
2019-04-20T04:18:23.616Z,100039.98
2019-04-20T04:20:52.221Z,100039.98
2019-04-20T04:23:35.635Z,100040.45
2019-04-20T04:26:05.762Z,100042.39
2019-04-20T04:28:31.079Z,100047.92
2019-04-20T04:31:07.934Z,100044.95
2019-04-20T04:36:05.891Z,100042.08
2019-04-20T04:38:42.389Z,100046.44
2019-04-20T04:41:16.428Z,100049.03
2019-04-20T04:43:42.598Z,100049.03
2019-04-20T04:45:51.556Z,100047.83
2019-04-20T04:48:27.651Z,100049.02
2019-04-20T04:50:58.949Z,100050.64
2019-04-20T04:53:31.226Z,100043.84
2019-04-20T04:55:58.573Z,100054.08
2019-04-20T04:58:23.647Z,100053.30
2019-04-20T05:00:56.832Z,100059.23
2019-04-20T05:03:38.823Z,100055.77
2019-04-20T05:06:18.631Z,100053.55
2019-04-20T05:08:36.888Z,100050.78
2019-04-20T05:11:02.605Z,100049.90
2019-04-20T05:13:44.907Z,100049.90
2019-04-20T05:16:21.705Z,100060.72
2019-04-20T05:19:09.582Z,100048.39
2019-04-20T05:21:56.464Z,100059.12
2019-04-20T05:24:48.184Z,100059.12
2019-04-20T05:27:34.783Z,100058.08
2019-04-20T05:29:42.986Z,100053.30
2019-04-20T05:32:17.917Z,100053.30
2019-04-20T05:35:09.671Z,100061.03
2019-04-20T05:37:53.302Z,100065.73
2019-04-20T05:40:05.987Z,100065.11
2019-04-20T05:42:39.825Z,100061.93
2019-04-20T05:45:07.296Z,100061.56
2019-04-20T05:47:35.387Z,100061.56
2019-04-20T05:50:00.962Z,100050.12
2019-04-20T05:52:45.562Z,100039.42
2019-04-20T05:55:17.605Z,100051.41
2019-04-20T05:57:42.716Z,100054.57
2019-04-20T06:00:26.713Z,100057.40
2019-04-20T06:02:56.017Z,100054.66
2019-04-20T06:05:27.550Z,100054.85
2019-04-20T06:07:54.833Z,100049.30
2019-04-20T06:10:29.822Z,100051.63
2019-04-20T06:12:55.507Z,100054.41
2019-04-20T06:15:42.099Z,100047.37
2019-04-20T06:18:06.918Z,100048.90
2019-04-20T06:20:50.335Z,100048.39
2019-04-20T06:23:42.743Z,100046.90
2019-04-20T06:26:19.495Z,100052.98
2019-04-20T06:28:30.103Z,100054.73
2019-04-20T06:30:59.461Z,100055.64
2019-04-20T06:39:16.118Z,100059.62
2019-04-20T06:42:02.009Z,100057.25
2019-04-20T06:44:16.511Z,100060.98
2019-04-20T06:46:52.484Z,100059.48
2019-04-20T06:49:26.896Z,100059.55
2019-04-20T06:52:09.799Z,100060.05
2019-04-20T06:55:03.461Z,100056.92
2019-04-20T06:57:43.469Z,100050.69
2019-04-20T07:00:12.815Z,100059.36
2019-04-20T07:02:43.106Z,100057.42
2019-04-20T07:05:11.836Z,100048.33
2019-04-20T07:07:43.352Z,100055.30
2019-04-20T07:10:19.756Z,100050.91
2019-04-20T07:12:39.587Z,100061.28
2019-04-20T07:15:01.349Z,100056.19
2019-04-20T07:17:54.979Z,100057.39
2019-04-20T07:20:51.596Z,100058.50
2019-04-20T07:23:23.681Z,100054.12
2019-04-20T07:25:47.888Z,100058.11
2019-04-20T07:28:24.743Z,100056.66
2019-04-20T07:30:50.638Z,100058.84
2019-04-20T07:33:25.694Z,100064.94
2019-04-20T07:35:46.112Z,100063.22
2019-04-20T07:40:50.981Z,100061.59
2019-04-20T07:43:19.816Z,100059.38
2019-04-20T07:45:51.713Z,100064.77
2019-04-20T07:48:20.930Z,100056.10
2019-04-20T07:50:44.878Z,100063.63
2019-04-20T07:53:20.197Z,100059.72
2019-04-20T07:55:54.163Z,100054.67
2019-04-20T07:58:15.596Z,100053.86
2019-04-20T08:01:07.878Z,100054.31
2019-04-20T08:03:45.700Z,100053.56
2019-04-20T08:06:18.366Z,100052.80
2019-04-20T08:08:57.407Z,100050.70
2019-04-20T08:11:26.719Z,100049.50
2019-04-20T08:14:07.094Z,100040.46
2019-04-20T08:16:54.655Z,100047.30
2019-04-20T08:19:07.847Z,100048.70
2019-04-20T08:21:39.191Z,100045.64
2019-04-20T08:24:03.833Z,100045.38
2019-04-20T08:26:23.089Z,100043.71
2019-04-20T08:29:02.445Z,100043.64
2019-04-20T08:31:55.901Z,100041.27
2019-04-20T08:34:31.338Z,100041.19
2019-04-20T08:37:01.691Z,100045.52
2019-04-20T08:42:02.064Z,100034.05
2019-04-20T08:44:48.478Z,100036.66
2019-04-20T08:47:14.852Z,100038.00
2019-04-20T08:49:37.870Z,100032.63
2019-04-20T08:52:20.990Z,100033.36
2019-04-20T08:54:30.996Z,100029.75
2019-04-20T08:56:51.526Z,100031.55
2019-04-20T08:59:14.646Z,100030.13
2019-04-20T09:01:44.610Z,100034.03
2019-04-20T09:04:20.736Z,100029.07
2019-04-20T09:06:57.404Z,100030.16
2019-04-20T09:09:45.519Z,100026.66
2019-04-20T09:12:06.485Z,100027.90
2019-04-20T09:14:22.093Z,100028.80
2019-04-20T09:17:04.882Z,100019.10
2019-04-20T09:19:39.986Z,100019.16
2019-04-20T09:22:32.270Z,100019.11
2019-04-20T09:25:19.307Z,100018.25
2019-04-20T09:27:30.211Z,100017.28
2019-04-20T09:30:04.325Z,100018.05
2019-04-20T09:32:39.689Z,100015.21
2019-04-20T09:35:13.584Z,100009.84
2019-04-20T09:37:51.133Z,100011.05
2019-04-20T09:40:47.065Z,100012.14
2019-04-20T09:43:10.976Z,100008.05
2019-04-20T09:45:49.030Z,100011.37
2019-04-20T09:48:23.337Z,100005.64
2019-04-20T09:51:07.916Z,100003.22
2019-04-20T09:53:33.054Z,100005.38
2019-04-20T09:56:01.623Z,100000.64
2019-04-20T09:58:27.167Z,99993.97
2019-04-20T10:01:03.250Z,100000.88
2019-04-20T10:03:18.833Z,100000.66
2019-04-20T10:05:47.920Z,99994.13
2019-04-20T10:08:17.612Z,99999.11
2019-04-20T10:10:47.648Z,99989.34
2019-04-20T10:13:17.436Z,99992.86
2019-04-20T10:15:46.288Z,99988.72
2019-04-20T10:18:15.350Z,99983.05
2019-04-20T10:20:45.293Z,99984.80
2019-04-20T10:23:14.421Z,99983.58
2019-04-20T10:25:44.593Z,99978.74
2019-04-20T10:28:13.918Z,99979.13
2019-04-20T10:30:44.307Z,99986.31
2019-04-20T10:33:13.413Z,99982.97
2019-04-20T10:35:43.496Z,99980.86
2019-04-20T10:38:17.875Z,99973.59
2019-04-20T10:40:59.801Z,99975.79
2019-04-20T10:43:17.389Z,99972.41
2019-04-20T10:45:46.821Z,99972.78
2019-04-20T10:48:17.244Z,99975.45
2019-04-20T10:50:47.224Z,99973.25
2019-04-20T10:53:16.000Z,99969.02
2019-04-20T10:55:45.262Z,99967.03
2019-04-20T10:58:15.524Z,99966.38
2019-04-20T11:00:46.119Z,99958.08
2019-04-20T11:03:17.638Z,99946.75
2019-04-20T11:05:48.795Z,99956.39
2019-04-20T11:08:18.083Z,99951.12
2019-04-20T11:10:58.939Z,99950.97
2019-04-20T11:13:17.466Z,99948.27
2019-04-20T11:15:46.491Z,99939.63
2019-04-20T11:18:15.575Z,99942.67
2019-04-20T11:20:45.518Z,99941.83
2019-04-20T11:23:14.395Z,99942.01
2019-04-20T11:25:44.159Z,99936.58
2019-04-20T11:28:14.349Z,99939.61
2019-04-20T11:30:43.810Z,99937.09
2019-04-20T11:33:13.958Z,99931.16
2019-04-20T11:35:43.692Z,99934.67
2019-04-20T11:38:15.898Z,99934.17
2019-04-20T11:40:44.878Z,99925.34
2019-04-20T11:43:13.920Z,99931.73
2019-04-20T11:45:42.822Z,99929.12
2019-04-20T11:48:11.699Z,99930.16
2019-04-20T11:50:40.542Z,99918.29
2019-04-20T11:53:09.551Z,99917.45
2019-04-20T11:55:40.398Z,99918.80
2019-04-20T11:58:10.090Z,99919.16
2019-04-20T12:00:53.998Z,99905.57
2019-04-20T12:03:30.879Z,99907.27
2019-04-20T12:05:57.134Z,99903.32
2019-04-20T12:08:24.990Z,99899.89
2019-04-20T12:10:59.367Z,99893.97
2019-04-20T12:13:24.941Z,99887.70
2019-04-20T12:15:54.002Z,99882.42
2019-04-20T12:18:23.353Z,99882.81
2019-04-20T12:20:52.631Z,99880.52
2019-04-20T12:23:22.297Z,99877.20
2019-04-20T12:25:52.319Z,99881.02
2019-04-20T12:28:21.990Z,99879.00
2019-04-20T12:30:51.517Z,99879.17
2019-04-20T12:33:21.855Z,99880.20
2019-04-20T12:35:52.176Z,99873.42
2019-04-20T12:38:21.141Z,99872.20
2019-04-20T12:40:50.517Z,99874.55
2019-04-20T12:43:20.367Z,99867.33
2019-04-20T12:45:49.747Z,99866.73
2019-04-20T12:48:19.728Z,99855.92
2019-04-20T12:50:49.902Z,99873.92
2019-04-20T12:53:20.332Z,99868.20
2019-04-20T12:55:50.740Z,99861.66
2019-04-20T12:58:20.899Z,99866.25
2019-04-20T13:00:52.120Z,99859.34
2019-04-20T13:03:21.504Z,99853.77
2019-04-20T13:05:51.893Z,99850.49
2019-04-20T13:08:28.678Z,99849.75
2019-04-20T13:11:18.411Z,99847.15
2019-04-20T13:14:08.448Z,99845.48
2019-04-20T13:16:38.697Z,99843.52
2019-04-20T13:19:08.911Z,99836.83
2019-04-20T13:21:39.031Z,99831.62
2019-04-20T13:24:09.013Z,99835.31
2019-04-20T13:26:38.233Z,99828.24
2019-04-20T13:29:07.138Z,99827.27
2019-04-20T13:31:35.953Z,99830.22
2019-04-20T13:34:07.721Z,99816.12
2019-04-20T13:36:37.972Z,99817.09
2019-04-20T13:39:08.217Z,99816.95
2019-04-20T13:41:38.063Z,99810.17
2019-04-20T13:44:08.389Z,99814.57
2019-04-20T13:46:38.719Z,99808.47
2019-04-20T13:49:09.162Z,99807.44
2019-04-20T13:51:41.399Z,99800.27
2019-04-20T13:54:14.993Z,99801.02
2019-04-20T13:56:43.830Z,99791.27
2019-04-20T13:59:48.090Z,99796.33
2019-04-20T14:02:30.890Z,99790.62
2019-04-20T14:05:04.659Z,99785.52
2019-04-20T14:07:35.541Z,99780.92
2019-04-20T14:10:21.613Z,99772.73
2019-04-20T14:13:01.250Z,99772.04
2019-04-20T14:15:22.839Z,99772.78
2019-04-20T14:17:53.039Z,99769.62
2019-04-20T14:20:23.781Z,99763.34
2019-04-20T14:22:52.921Z,99763.63
2019-04-20T14:25:22.851Z,99766.27
2019-04-20T14:27:52.908Z,99762.97
2019-04-20T14:30:22.368Z,99758.00
2019-04-20T14:32:52.551Z,99755.95
2019-04-20T14:35:22.748Z,99750.89
2019-04-20T14:37:52.106Z,99750.46
2019-04-20T14:40:22.120Z,99747.81
2019-04-20T14:42:53.376Z,99748.58
2019-04-20T14:45:22.676Z,99739.66
2019-04-20T14:47:51.925Z,99734.93
2019-04-20T14:50:21.147Z,99736.42
2019-04-20T14:52:51.415Z,99732.67
2019-04-20T14:55:22.459Z,99735.31
2019-04-20T14:57:53.202Z,99728.59
2019-04-20T15:00:41.946Z,99725.61
2019-04-20T15:03:33.136Z,99727.56
2019-04-20T15:06:03.380Z,99724.30
2019-04-20T15:08:32.576Z,99722.38
2019-04-20T15:11:01.306Z,99724.00
2019-04-20T15:13:30.825Z,99717.34
2019-04-20T15:16:00.115Z,99719.48
2019-04-20T15:18:37.756Z,99715.38
2019-04-20T15:21:07.658Z,99717.02
2019-04-20T15:23:37.366Z,99711.50
2019-04-20T15:26:06.621Z,99716.92
2019-04-20T15:28:36.583Z,99706.35
2019-04-20T15:31:06.016Z,99706.05
2019-04-20T15:33:37.076Z,99703.59
2019-04-20T15:36:06.331Z,99704.89
2019-04-20T15:38:35.620Z,99703.63
2019-04-20T15:41:06.929Z,99702.16
2019-04-20T15:43:35.645Z,99696.51
2019-04-20T15:46:05.458Z,99695.02
2019-04-20T15:48:37.737Z,99697.83
2019-04-20T15:51:08.003Z,99702.64
2019-04-20T15:53:39.898Z,99700.73
2019-04-20T15:56:11.518Z,99694.06
2019-04-20T15:58:40.724Z,99694.06
2019-04-20T16:01:10.415Z,99695.92
2019-04-20T16:03:45.718Z,99692.32
2019-04-20T16:06:14.787Z,99696.44
2019-04-20T16:08:54.705Z,99696.29
2019-04-20T16:11:23.486Z,99696.58
2019-04-20T16:13:55.389Z,99693.68
2019-04-20T16:16:23.785Z,99694.02
2019-04-20T16:18:52.899Z,99693.39
2019-04-20T16:21:24.906Z,99696.83
2019-04-20T16:24:01.204Z,99694.34
2019-04-20T16:26:35.721Z,99690.97
2019-04-20T16:29:05.967Z,99695.08
2019-04-20T16:31:36.221Z,99687.27
2019-04-20T16:34:05.398Z,99693.22
2019-04-20T16:36:38.758Z,99687.65
2019-04-20T16:39:10.582Z,99684.23
2019-04-20T16:41:40.216Z,99690.02
2019-04-20T16:44:09.405Z,99686.73
2019-04-20T16:47:18.471Z,99685.05
2019-04-20T16:49:48.826Z,99681.37
2019-04-20T16:52:19.107Z,99685.16
2019-04-20T16:54:48.252Z,99676.45
2019-04-20T16:57:17.680Z,99677.05
2019-04-20T16:59:50.838Z,99665.77
2019-04-20T17:02:19.568Z,99673.72
2019-04-20T17:04:51.505Z,99670.83
2019-04-20T17:07:22.914Z,99662.98
2019-04-20T17:09:51.996Z,99668.19
2019-04-20T17:12:21.701Z,99670.42
2019-04-20T17:14:51.672Z,99664.81
2019-04-20T17:17:21.917Z,99670.49
2019-04-20T17:19:51.482Z,99668.77
2019-04-20T17:22:21.481Z,99674.74
2019-04-20T17:24:51.517Z,99675.44
2019-04-20T17:27:44.712Z,99666.45
2019-04-20T17:30:33.586Z,99672.97
2019-04-20T17:33:06.192Z,99669.89
2019-04-20T17:35:50.650Z,99668.64
2019-04-20T17:38:06.906Z,99670.23
2019-04-20T17:40:56.013Z,99658.36
2019-04-20T17:43:17.808Z,99665.39
2019-04-20T17:45:48.318Z,99663.59
2019-04-20T17:48:26.990Z,99667.16
2019-04-20T17:50:58.942Z,99670.55
2019-04-20T17:53:31.527Z,99663.77
2019-04-20T17:55:53.008Z,99668.67
2019-04-20T17:58:28.983Z,99664.98
2019-04-20T18:01:20.424Z,99667.16
2019-04-20T18:04:15.198Z,99669.88
2019-04-20T18:06:27.758Z,99677.33
2019-04-20T18:08:55.495Z,99672.59
2019-04-20T18:11:16.792Z,99672.91
2019-04-20T18:13:43.362Z,99676.95
2019-04-20T18:16:41.999Z,99677.98
2019-04-20T18:22:54.786Z,99685.34
2019-04-20T18:25:50.822Z,99687.41
2019-04-20T18:28:04.129Z,99686.19
2019-04-20T18:30:40.720Z,99682.92
2019-04-20T18:33:01.135Z,99689.16
2019-04-20T18:35:34.902Z,99691.86
2019-04-20T18:38:04.688Z,99693.78
2019-04-20T18:40:40.171Z,99695.05
2019-04-20T18:43:10.343Z,99691.86
2019-04-20T18:45:53.453Z,99699.08
2019-04-20T18:48:24.580Z,99698.53
2019-04-20T18:50:39.814Z,99704.07
2019-04-20T18:53:05.572Z,99708.76
2019-04-20T18:55:46.166Z,99703.61
2019-04-20T18:58:07.021Z,99710.14
2019-04-20T19:00:42.111Z,99709.09
2019-04-20T19:03:14.427Z,99706.27
2019-04-20T19:05:37.957Z,99709.12
2019-04-20T19:08:11.559Z,99714.77
2019-04-20T19:10:40.370Z,99712.93
2019-04-20T19:13:23.800Z,99712.22
2019-04-20T19:16:03.672Z,99718.03
2019-04-20T19:18:45.250Z,99718.42
2019-04-20T19:21:04.087Z,99725.08
2019-04-20T19:23:53.361Z,99728.97
2019-04-20T19:26:24.999Z,99727.45
2019-04-20T19:29:34.561Z,99727.88
2019-04-20T19:32:18.228Z,99727.92
2019-04-20T19:34:41.823Z,99730.20
2019-04-20T19:37:13.794Z,99726.64
2019-04-20T19:39:47.081Z,99725.39
2019-04-20T19:42:14.835Z,99722.71
2019-04-20T19:44:47.967Z,99720.97
2019-04-20T19:47:20.885Z,99723.66
2019-04-20T19:49:44.150Z,99726.92
2019-04-20T19:52:34.807Z,99725.03
2019-04-20T19:54:50.684Z,99721.99
2019-04-20T19:57:22.637Z,99718.95
2019-04-20T19:59:40.469Z,99723.17
2019-04-20T20:02:05.627Z,99719.42
2019-04-20T20:04:41.410Z,99721.45
2019-04-20T20:07:15.527Z,99720.09
2019-04-20T20:09:38.521Z,99716.82
2019-04-20T20:12:11.834Z,99728.25
2019-04-20T20:14:41.283Z,99720.91
2019-04-20T20:17:27.378Z,99723.50
2019-04-20T20:20:11.874Z,99726.98
2019-04-20T20:22:19.611Z,99724.89
2019-04-20T20:24:39.049Z,99722.61
2019-04-20T20:27:21.757Z,99720.84
2019-04-20T20:29:51.897Z,99724.14
2019-04-20T20:32:22.582Z,99726.37
2019-04-20T20:34:43.490Z,99725.18
2019-04-20T20:37:14.546Z,99731.26
2019-04-20T20:39:52.585Z,99729.11
2019-04-20T20:42:26.171Z,99735.30
2019-04-20T20:44:50.421Z,99731.79
2019-04-20T20:47:39.920Z,99737.25
2019-04-20T20:50:07.962Z,99731.39
2019-04-20T20:52:31.535Z,99740.68
2019-04-20T20:54:56.314Z,99735.13
2019-04-20T20:57:21.907Z,99738.61
2019-04-20T20:59:55.272Z,99741.39
2019-04-20T21:02:22.390Z,99741.92
2019-04-20T21:04:47.876Z,99744.23
2019-04-20T21:07:16.739Z,99743.61
2019-04-20T21:09:46.123Z,99743.54
2019-04-20T21:12:17.867Z,99740.47
2019-04-20T21:14:46.882Z,99740.70
2019-04-20T21:17:19.967Z,99738.22
2019-04-20T21:20:03.457Z,99737.55
2019-04-20T21:22:40.327Z,99735.53
2019-04-20T21:24:51.472Z,99727.84
2019-04-20T21:27:22.173Z,99730.76
2019-04-20T21:29:54.350Z,99730.73
2019-04-20T21:32:23.588Z,99728.87
2019-04-20T21:35:00.296Z,99732.58
2019-04-20T21:37:25.345Z,99731.99
2019-04-20T21:39:59.061Z,99733.67
2019-04-20T21:42:26.697Z,99735.36
2019-04-20T21:45:05.624Z,99732.87
2019-04-20T21:47:31.468Z,99737.09
2019-04-20T21:50:15.672Z,99730.23
2019-04-20T21:52:34.201Z,99720.94
2019-04-20T21:54:58.174Z,99712.95
2019-04-20T21:57:32.482Z,99720.47
2019-04-20T22:00:08.380Z,99723.08
2019-04-20T22:02:32.767Z,99719.76
2019-04-20T22:04:58.662Z,99718.45
2019-04-20T22:07:28.328Z,99710.42
2019-04-20T22:09:58.456Z,99711.27
2019-04-20T22:12:37.859Z,99713.67
2019-04-20T22:15:03.977Z,99714.97
2019-04-20T22:17:30.991Z,99709.02
2019-04-20T22:20:13.278Z,99714.89
2019-04-20T22:22:50.829Z,99716.16
2019-04-20T22:25:16.172Z,99717.71
2019-04-20T22:27:34.807Z,99710.63
2019-04-20T22:30:02.149Z,99711.45
2019-04-20T22:32:32.254Z,99711.27
2019-04-20T22:35:06.799Z,99708.19
2019-04-20T22:38:03.641Z,99711.22
2019-04-20T22:40:31.617Z,99704.23
2019-04-20T22:43:00.086Z,99697.66
2019-04-20T22:45:29.511Z,99696.44
2019-04-20T22:48:04.028Z,99688.83
2019-04-20T22:50:41.359Z,99688.98
2019-04-20T22:53:17.983Z,99690.74
2019-04-20T22:55:59.989Z,99685.06
2019-04-20T22:58:10.380Z,99686.56
2019-04-20T23:00:39.262Z,99685.21
2019-04-20T23:03:01.324Z,99683.88
2019-04-20T23:05:30.958Z,99680.13
2019-04-20T23:07:59.796Z,99675.45
2019-04-20T23:10:35.819Z,99671.77
2019-04-20T23:12:59.714Z,99665.13
2019-04-20T23:15:30.150Z,99666.98
2019-04-20T23:18:00.108Z,99664.00
2019-04-20T23:20:32.661Z,99665.77
2019-04-20T23:23:00.780Z,99665.87
2019-04-20T23:25:29.723Z,99657.25
2019-04-20T23:28:06.463Z,99658.53
2019-04-20T23:30:33.980Z,99652.83
2019-04-20T23:33:00.076Z,99652.11
2019-04-20T23:35:30.373Z,99648.22
2019-04-20T23:38:04.410Z,99645.39
2019-04-20T23:40:29.967Z,99644.38
2019-04-20T23:43:15.249Z,99637.69
2019-04-20T23:45:53.099Z,99638.12
2019-04-20T23:48:34.871Z,99634.19
2019-04-20T23:51:24.950Z,99633.84
2019-04-20T23:53:43.563Z,99629.16
2019-04-20T23:56:01.764Z,99630.86
2019-04-20T23:58:39.942Z,99625.34
